Airport ID:KVUF
Update Time (UTC):16/04/2024 21:00
Wind Speed (Knots):12
Wind Direction (Magnetic):230
Temperature (°C):29
Dew Point (°C):0
Humidity (%):15
Altimeter (inHg):29.79
Density Altitude (Feet):4000
Visibility:10+
Clouds (Hundreds of feet):CLR
Present Weather:
METAR:METAR KVUF 162100Z AUTO 23013KT 10SM CLR 29/M00 A2979 RMK A01

The data displayed is for advisory purposes only and is not to be used for flight planning or operations.